Time;durP1;ratioP1;P1;durP2;ratioP2;P2;SDS_P1;SDS_P2;PMS_P1;PMS_P2;Temp;Humidity;BMP_temperature;BMP_pressure;BME280_temperature;BME280_humidity;BME280_pressure;Samples;Min_cycle;Max_cycle;Signal;HPM_P1;HPM_P2
2023/07/05 00:01:37;;;;;;;7.57;2.88;;;19.90;58.90;;;;;;5038736;28;20033;-59
2023/07/05 00:04:02;;;;;;;10.68;2.63;;;19.80;59.20;;;;;;5034441;28;20033;-59
2023/07/05 00:06:28;;;;;;;5.65;2.60;;;19.80;59.50;;;;;;5034380;28;20026;-58
2023/07/05 00:08:54;;;;;;;5.25;2.83;;;19.80;60.00;;;;;;5036354;28;20565;-58
2023/07/05 00:11:20;;;;;;;4.28;2.55;;;19.80;60.30;;;;;;5040346;28;20034;-58
2023/07/05 00:13:45;;;;;;;6.03;2.83;;;19.80;60.50;;;;;;5033480;28;20064;-59
2023/07/05 00:16:12;;;;;;;5.63;2.58;;;19.80;60.80;;;;;;5044652;28;20056;-58
2023/07/05 00:18:38;;;;;;;7.40;2.65;;;19.80;60.90;;;;;;5042987;28;20448;-59
2023/07/05 00:21:06;;;;;;;5.43;3.22;;;19.80;60.10;;;;;;5042208;28;20094;-59
2023/07/05 00:23:33;;;;;;;5.03;3.08;;;19.70;60.80;;;;;;5037605;28;20032;-59
2023/07/05 00:26:00;;;;;;;5.53;2.95;;;19.70;61.60;;;;;;5032880;28;20046;-59
2023/07/05 00:28:26;;;;;;;6.70;3.15;;;19.60;60.90;;;;;;5039557;28;20025;-59
2023/07/05 00:30:51;;;;;;;4.85;2.80;;;19.60;61.30;;;;;;5042836;28;20156;-59
2023/07/05 00:33:17;;;;;;;5.72;2.70;;;19.50;61.20;;;;;;5040500;28;20030;-58
2023/07/05 00:35:53;;;;;;;6.85;2.65;;;19.50;61.50;;;;;;5040389;28;20045;-58
2023/07/05 00:38:19;;;;;;;4.05;2.53;;;19.40;62.80;;;;;;5038677;28;20113;-60
2023/07/05 00:40:46;;;;;;;8.60;3.00;;;19.30;61.70;;;;;;5038766;28;20318;-59
2023/07/05 00:43:13;;;;;;;4.13;2.50;;;19.30;62.80;;;;;;5040113;28;20025;-59
2023/07/05 00:45:56;;;;;;;5.20;2.88;;;19.30;62.60;;;;;;5035405;28;20041;-60
2023/07/05 00:48:46;;;;;;;6.80;2.72;;;19.30;63.40;;;;;;5038034;28;20021;-59
2023/07/05 00:51:43;;;;;;;4.75;2.70;;;19.20;65.00;;;;;;5038890;28;20045;-58
2023/07/05 00:54:10;;;;;;;3.90;2.60;;;19.30;65.10;;;;;;5019098;28;20144;-59
2023/07/05 00:56:59;;;;;;;5.68;2.90;;;19.30;62.70;;;;;;5023966;28;20045;-60
2023/07/05 00:59:28;;;;;;;4.10;2.42;;;19.30;65.30;;;;;;5037651;28;20030;-59
2023/07/05 01:01:53;;;;;;;4.43;2.60;;;19.20;63.40;;;;;;5016231;28;20282;-59
2023/07/05 01:04:19;;;;;;;4.90;2.80;;;19.20;63.10;;;;;;5035367;28;20057;-59
2023/07/05 01:06:47;;;;;;;5.00;2.22;;;19.20;63.20;;;;;;5032956;28;20021;-60
2023/07/05 01:09:12;;;;;;;6.95;2.60;;;19.30;64.10;;;;;;5033890;28;20025;-61
2023/07/05 01:12:00;;;;;;;4.43;2.58;;;19.20;63.50;;;;;;5025055;28;20025;-60
2023/07/05 01:15:03;;;;;;;5.18;2.60;;;19.20;65.30;;;;;;5032891;28;20113;-60
2023/07/05 01:17:50;;;;;;;3.35;2.58;;;19.20;65.00;;;;;;5036442;28;20037;-60
2023/07/05 01:20:52;;;;;;;5.30;2.55;;;19.20;64.80;;;;;;5027118;28;20049;-60
2023/07/05 01:23:46;;;;;;;5.57;3.08;;;19.20;65.50;;;;;;5013203;28;20022;-59
2023/07/05 01:26:26;;;;;;;7.18;2.75;;;19.20;64.60;;;;;;5025737;28;20042;-58
2023/07/05 01:29:08;;;;;;;3.83;2.80;;;19.30;63.50;;;;;;5025922;28;20411;-59
2023/07/05 01:31:48;;;;;;;3.90;2.25;;;19.10;65.00;;;;;;5029301;28;20029;-59
2023/07/05 01:34:34;;;;;;;5.18;2.65;;;19.00;65.30;;;;;;5028602;28;20045;-59
2023/07/05 01:37:02;;;;;;;4.53;2.63;;;19.00;63.70;;;;;;5035809;28;20036;-59
2023/07/05 01:39:28;;;;;;;6.05;2.88;;;19.00;63.70;;;;;;5033064;28;20029;-60
2023/07/05 01:41:54;;;;;;;4.85;2.72;;;19.00;64.00;;;;;;5036113;28;20034;-60
2023/07/05 01:44:20;;;;;;;6.05;2.83;;;19.00;64.10;;;;;;5033666;28;20017;-59
2023/07/05 01:46:51;;;;;;;4.10;2.97;;;19.00;64.30;;;;;;5027463;28;20034;-58
2023/07/05 01:49:31;;;;;;;5.38;2.70;;;19.00;64.70;;;;;;5036384;28;20034;-59
2023/07/05 01:52:19;;;;;;;4.72;2.88;;;18.90;64.70;;;;;;5037706;28;20112;-59
2023/07/05 01:55:40;;;;;;;6.47;2.78;;;18.90;65.80;;;;;;5033672;28;20104;-60
2023/07/05 01:58:11;;;;;;;7.22;2.55;;;18.90;65.90;;;;;;4926639;29;20067;-60
2023/07/05 02:00:40;;;;;;;3.55;2.78;;;18.80;64.00;;;;;;4938415;29;20040;-60
2023/07/05 02:03:11;;;;;;;3.70;2.67;;;18.80;64.20;;;;;;4931988;29;20466;-60
2023/07/05 02:05:37;;;;;;;5.43;2.55;;;18.80;65.00;;;;;;4935181;29;20036;-59
2023/07/05 02:08:04;;;;;;;5.18;2.75;;;18.80;64.80;;;;;;4934869;29;20043;-58
2023/07/05 02:10:30;;;;;;;5.25;2.78;;;18.80;64.90;;;;;;4934105;29;20050;-59
2023/07/05 02:12:57;;;;;;;8.05;3.10;;;18.70;65.00;;;;;;4939214;29;20039;-59
2023/07/05 02:15:23;;;;;;;5.22;2.35;;;18.70;64.90;;;;;;4930609;29;20039;-59
2023/07/05 02:17:49;;;;;;;3.47;2.10;;;18.70;64.90;;;;;;4934364;29;20028;-59
2023/07/05 02:20:16;;;;;;;2.90;2.10;;;18.70;64.70;;;;;;4931515;29;20091;-58
2023/07/05 02:22:41;;;;;;;1.92;1.73;;;18.70;64.70;;;;;;4934368;29;20038;-58
2023/07/05 02:25:07;;;;;;;1.95;1.75;;;18.60;64.70;;;;;;4940457;29;20068;-59
2023/07/05 02:27:33;;;;;;;2.40;1.95;;;18.60;64.80;;;;;;4937456;29;20531;-59
2023/07/05 02:29:59;;;;;;;2.20;1.83;;;18.60;64.70;;;;;;4931430;29;20040;-58
2023/07/05 02:32:25;;;;;;;4.38;2.33;;;18.60;64.60;;;;;;4945791;28;20038;-59
2023/07/05 02:34:52;;;;;;;4.40;2.35;;;18.60;65.50;;;;;;5036380;28;20017;-59
2023/07/05 02:37:18;;;;;;;4.65;3.00;;;18.50;64.90;;;;;;5038078;28;20033;-59
2023/07/05 02:39:44;;;;;;;9.73;2.83;;;18.50;65.10;;;;;;5033039;28;20044;-60
2023/07/05 02:42:09;;;;;;;6.20;2.65;;;18.50;65.20;;;;;;5038633;28;20112;-58
2023/07/05 02:44:35;;;;;;;5.10;2.92;;;18.50;65.30;;;;;;5038764;28;20036;-59
2023/07/05 02:47:01;;;;;;;3.65;2.78;;;18.50;65.40;;;;;;5026972;28;20148;-59
2023/07/05 02:49:27;;;;;;;5.93;2.72;;;18.50;65.50;;;;;;5034486;28;20025;-61
2023/07/05 02:51:54;;;;;;;9.73;2.45;;;18.50;65.70;;;;;;5024850;28;20087;-59
2023/07/05 02:54:19;;;;;;;5.18;2.60;;;18.40;65.50;;;;;;5030578;28;20033;-58
2023/07/05 02:56:45;;;;;;;4.10;2.17;;;18.40;65.50;;;;;;5032122;28;20038;-59
2023/07/05 02:59:11;;;;;;;4.22;2.10;;;18.40;65.40;;;;;;5012107;28;20033;-59
2023/07/05 03:01:36;;;;;;;4.35;2.50;;;18.40;65.40;;;;;;5021995;28;20028;-59
2023/07/05 03:04:02;;;;;;;3.63;2.65;;;18.40;65.40;;;;;;5024346;28;20034;-60
2023/07/05 03:06:28;;;;;;;2.88;2.38;;;18.40;65.50;;;;;;5036067;28;20033;-59
2023/07/05 03:08:53;;;;;;;5.35;2.80;;;18.40;65.40;;;;;;5027635;28;20029;-59
2023/07/05 03:11:19;;;;;;;2.72;2.40;;;18.30;65.50;;;;;;5025613;28;20021;-58
2023/07/05 03:13:45;;;;;;;4.85;2.97;;;18.30;65.70;;;;;;5030797;28;20084;-59
2023/07/05 03:16:10;;;;;;;5.28;3.22;;;18.30;65.80;;;;;;5039455;28;20049;-58
2023/07/05 03:18:36;;;;;;;5.25;2.50;;;18.30;66.00;;;;;;5038579;28;20033;-59
2023/07/05 03:21:02;;;;;;;5.28;3.20;;;18.30;66.20;;;;;;5041963;28;20021;-58
2023/07/05 03:23:28;;;;;;;8.95;3.67;;;18.30;66.40;;;;;;5042018;28;20079;-58
2023/07/05 03:25:59;;;;;;;7.13;3.88;;;18.30;66.60;;;;;;5040501;28;20125;-58
2023/07/05 03:28:27;;;;;;;11.65;4.47;;;18.20;66.80;;;;;;5040718;28;20053;-59
2023/07/05 03:31:14;;;;;;;6.00;3.47;;;18.20;67.10;;;;;;5039623;28;21466;-59
2023/07/05 03:33:40;;;;;;;5.82;3.22;;;18.30;68.30;;;;;;5037792;28;20052;-59
2023/07/05 03:36:15;;;;;;;6.78;3.70;;;18.30;66.90;;;;;;5042224;28;20053;-58
2023/07/05 03:38:41;;;;;;;4.43;3.05;;;18.30;68.30;;;;;;5036398;28;20032;-59
2023/07/05 03:41:12;;;;;;;5.15;3.33;;;18.30;67.50;;;;;;5042457;28;20033;-59
2023/07/05 03:43:38;;;;;;;6.65;3.75;;;18.30;67.90;;;;;;5036059;28;20052;-59
2023/07/05 03:46:05;;;;;;;5.72;3.58;;;18.40;67.50;;;;;;5041029;28;20033;-59
2023/07/05 03:48:34;;;;;;;7.78;3.13;;;18.40;67.70;;;;;;5040269;28;20025;-59
2023/07/05 03:51:00;;;;;;;8.15;3.55;;;18.40;67.90;;;;;;5040590;28;20124;-59
2023/07/05 03:53:27;;;;;;;6.53;3.58;;;18.40;67.80;;;;;;5036996;28;20026;-60
2023/07/05 03:55:53;;;;;;;6.53;3.67;;;18.40;68.10;;;;;;5038759;28;20041;-59
2023/07/05 03:58:19;;;;;;;4.35;2.90;;;18.40;67.80;;;;;;5039816;28;20025;-60
2023/07/05 04:00:45;;;;;;;7.32;2.60;;;18.40;68.10;;;;;;5032528;28;20475;-60
2023/07/05 04:03:14;;;;;;;5.13;2.40;;;18.50;68.10;;;;;;5043106;28;20033;-59
2023/07/05 04:05:40;;;;;;;3.45;1.88;;;18.50;67.90;;;;;;5040554;28;20053;-60
2023/07/05 04:08:06;;;;;;;6.10;2.33;;;18.50;68.20;;;;;;5042041;28;20068;-59
2023/07/05 04:10:31;;;;;;;3.28;1.75;;;18.50;68.30;;;;;;5042324;28;20025;-60
2023/07/05 04:12:57;;;;;;;3.10;1.63;;;18.60;68.20;;;;;;5041450;28;20041;-60
2023/07/05 04:15:22;;;;;;;4.20;1.80;;;18.60;68.40;;;;;;5041959;28;20033;-60
2023/07/05 04:17:48;;;;;;;2.72;1.48;;;18.60;68.40;;;;;;5041314;28;20056;-59
2023/07/05 04:20:14;;;;;;;3.70;1.80;;;18.70;68.40;;;;;;5038642;28;20029;-59
2023/07/05 04:22:41;;;;;;;7.72;1.90;;;18.70;68.30;;;;;;5041175;28;20029;-59
2023/07/05 04:25:08;;;;;;;3.92;1.60;;;18.70;68.20;;;;;;5038907;28;20067;-60
2023/07/05 04:27:34;;;;;;;2.50;1.42;;;18.70;68.10;;;;;;5036143;28;20026;-60
2023/07/05 04:29:59;;;;;;;3.45;1.63;;;18.80;68.10;;;;;;5038880;28;20092;-59
2023/07/05 04:32:26;;;;;;;5.65;1.20;;;18.80;68.10;;;;;;5035398;28;20041;-59
2023/07/05 04:34:52;;;;;;;2.30;1.27;;;18.80;68.40;;;;;;5038409;28;20033;-58
2023/07/05 04:37:17;;;;;;;3.97;1.30;;;18.80;68.30;;;;;;5042391;28;20046;-60
2023/07/05 04:39:43;;;;;;;2.15;1.25;;;18.80;68.60;;;;;;5039875;28;20160;-58
2023/07/05 04:42:09;;;;;;;2.53;0.98;;;18.80;68.50;;;;;;5041009;28;20108;-58
2023/07/05 04:44:35;;;;;;;3.17;1.08;;;18.80;68.70;;;;;;5043022;28;20033;-58
2023/07/05 04:47:00;;;;;;;4.93;1.45;;;18.80;68.70;;;;;;5035163;28;20040;-59
2023/07/05 04:49:26;;;;;;;5.05;1.20;;;18.90;68.80;;;;;;5040842;28;20033;-59
2023/07/05 04:51:52;;;;;;;4.90;1.17;;;18.90;69.00;;;;;;5041150;28;20140;-58
2023/07/05 04:54:17;;;;;;;3.30;1.20;;;18.90;69.20;;;;;;5041097;28;20063;-58
2023/07/05 04:56:43;;;;;;;2.55;1.45;;;18.90;69.30;;;;;;5040862;28;20049;-59
2023/07/05 04:59:10;;;;;;;2.25;1.27;;;18.90;69.00;;;;;;5040579;28;20033;-59
2023/07/05 05:01:37;;;;;;;2.95;1.13;;;19.00;69.40;;;;;;5033882;28;20037;-58
2023/07/05 05:04:04;;;;;;;2.42;1.15;;;19.00;69.20;;;;;;5037277;28;20086;-58
2023/07/05 05:06:30;;;;;;;1.80;1.10;;;19.00;69.20;;;;;;5025026;28;20049;-59
2023/07/05 05:08:55;;;;;;;5.45;1.13;;;19.10;69.30;;;;;;5036578;28;20448;-59
2023/07/05 05:11:22;;;;;;;1.85;0.90;;;19.20;69.30;;;;;;5041313;28;20028;-58
2023/07/05 05:13:49;;;;;;;2.75;1.20;;;19.20;69.30;;;;;;5040125;28;20032;-58
2023/07/05 05:16:15;;;;;;;1.73;1.10;;;19.20;69.20;;;;;;5033043;28;20033;-59
2023/07/05 05:18:43;;;;;;;4.93;1.00;;;19.30;68.80;;;;;;5039057;28;20068;-58
2023/07/05 05:21:09;;;;;;;1.67;0.90;;;19.30;68.50;;;;;;5036213;28;20434;-60
2023/07/05 05:23:35;;;;;;;3.25;1.10;;;19.30;68.40;;;;;;5039623;28;20026;-59
2023/07/05 05:26:01;;;;;;;2.60;0.90;;;19.30;68.60;;;;;;5039032;28;20041;-59
2023/07/05 05:28:27;;;;;;;2.80;1.05;;;19.30;68.30;;;;;;5022981;28;20063;-59
2023/07/05 05:31:01;;;;;;;2.78;1.13;;;19.40;68.40;;;;;;5040585;28;20017;-59
2023/07/05 05:33:26;;;;;;;1.67;0.90;;;19.40;70.10;;;;;;5044861;28;20085;-59
2023/07/05 05:35:52;;;;;;;4.13;0.90;;;19.40;68.80;;;;;;5036318;28;20049;-60
2023/07/05 05:38:19;;;;;;;2.42;0.80;;;19.50;68.80;;;;;;5041431;28;20080;-59
2023/07/05 05:40:46;;;;;;;2.13;1.17;;;19.60;69.20;;;;;;5039700;28;20026;-59
2023/07/05 05:43:11;;;;;;;2.78;0.95;;;19.60;69.50;;;;;;5035553;28;20441;-59
2023/07/05 05:45:37;;;;;;;1.48;0.70;;;19.70;69.50;;;;;;5039804;28;20037;-58
2023/07/05 05:48:03;;;;;;;2.03;1.08;;;19.80;69.50;;;;;;5040012;28;20021;-59
2023/07/05 05:50:30;;;;;;;4.35;1.05;;;19.90;69.10;;;;;;5038931;28;20029;-60
2023/07/05 05:52:56;;;;;;;2.20;1.00;;;20.00;68.80;;;;;;5040337;28;20388;-59
2023/07/05 05:55:22;;;;;;;1.40;0.90;;;20.10;68.70;;;;;;5037089;28;20037;-59
2023/07/05 05:57:47;;;;;;;4.00;1.00;;;20.10;68.60;;;;;;5039656;28;20037;-58
2023/07/05 06:00:13;;;;;;;2.65;1.00;;;20.20;68.50;;;;;;5038221;28;20025;-59
2023/07/05 06:02:39;;;;;;;2.47;1.08;;;20.20;68.30;;;;;;5034976;28;20424;-61
2023/07/05 06:05:05;;;;;;;1.45;0.93;;;20.20;68.00;;;;;;5035681;28;20033;-59
2023/07/05 06:07:31;;;;;;;3.30;1.10;;;20.30;68.30;;;;;;5039619;28;20026;-58
2023/07/05 06:09:56;;;;;;;3.85;1.10;;;20.30;68.40;;;;;;5033935;28;20026;-59
2023/07/05 06:12:22;;;;;;;3.42;0.73;;;20.40;68.50;;;;;;5040321;28;20040;-59
2023/07/05 06:14:47;;;;;;;1.83;0.98;;;20.50;68.40;;;;;;5039784;28;20033;-60
2023/07/05 06:17:13;;;;;;;3.00;1.00;;;20.60;68.40;;;;;;5040447;28;20101;-60
2023/07/05 06:19:39;;;;;;;2.80;0.90;;;20.70;68.40;;;;;;5036660;28;20041;-59
2023/07/05 06:22:06;;;;;;;3.08;0.90;;;20.80;68.30;;;;;;5039542;28;20029;-59
2023/07/05 06:24:32;;;;;;;4.38;1.25;;;20.90;67.90;;;;;;5034045;28;20056;-58
2023/07/05 06:26:58;;;;;;;1.92;1.10;;;21.10;67.80;;;;;;5032493;28;20041;-58
2023/07/05 06:29:24;;;;;;;2.50;1.08;;;21.20;67.70;;;;;;5030433;28;20083;-60
2023/07/05 06:31:50;;;;;;;2.90;1.13;;;21.40;67.60;;;;;;5037306;28;20033;-60
2023/07/05 06:34:15;;;;;;;5.65;1.10;;;21.50;67.80;;;;;;5033908;28;20061;-58
2023/07/05 06:36:41;;;;;;;1.95;1.35;;;21.70;67.50;;;;;;5040253;28;20040;-59
2023/07/05 06:39:07;;;;;;;5.57;2.00;;;21.90;67.00;;;;;;5038287;28;20369;-59
2023/07/05 06:41:32;;;;;;;3.35;1.80;;;22.00;66.10;;;;;;5034509;28;20037;-60
2023/07/05 06:43:58;;;;;;;6.47;1.92;;;22.00;65.20;;;;;;5038736;28;20048;-60
2023/07/05 06:46:24;;;;;;;3.60;2.10;;;22.00;65.10;;;;;;5039767;28;20423;-59
2023/07/05 06:48:50;;;;;;;6.53;2.03;;;21.80;64.80;;;;;;5035477;28;20092;-59
2023/07/05 06:51:16;;;;;;;4.30;1.95;;;21.80;65.20;;;;;;5030798;28;20085;-59
2023/07/05 06:53:43;;;;;;;4.35;2.03;;;21.70;65.10;;;;;;5041454;28;20022;-60
2023/07/05 06:56:11;;;;;;;2.78;2.00;;;21.60;65.80;;;;;;5018717;28;20038;-59
2023/07/05 06:58:37;;;;;;;3.80;2.15;;;21.60;66.60;;;;;;5034408;28;20223;-59
2023/07/05 07:01:03;;;;;;;2.38;1.75;;;21.70;67.10;;;;;;5038327;28;20025;-59
2023/07/05 07:03:29;;;;;;;3.13;2.13;;;21.80;66.80;;;;;;5039080;28;20018;-59
2023/07/05 07:05:57;;;;;;;3.50;1.98;;;21.80;66.70;;;;;;5035539;28;20037;-60
2023/07/05 07:08:34;;;;;;;2.75;1.90;;;21.90;66.70;;;;;;5032360;28;20026;-59
2023/07/05 07:11:01;;;;;;;2.83;1.90;;;22.00;66.70;;;;;;5025490;28;20045;-61
2023/07/05 07:13:28;;;;;;;2.80;1.80;;;22.10;66.80;;;;;;5034595;28;20602;-59
2023/07/05 07:16:01;;;;;;;3.20;1.63;;;22.30;66.50;;;;;;5028647;28;20036;-59
2023/07/05 07:18:27;;;;;;;3.15;1.60;;;22.40;66.30;;;;;;5029542;28;20033;-58
2023/07/05 07:20:54;;;;;;;3.03;1.50;;;22.60;66.00;;;;;;5033371;28;20021;-60
2023/07/05 07:23:21;;;;;;;7.07;2.75;;;22.70;65.50;;;;;;5034803;28;20034;-60
2023/07/05 07:25:46;;;;;;;3.40;2.00;;;22.80;64.80;;;;;;5032698;28;20053;-59
2023/07/05 07:28:12;;;;;;;3.08;1.30;;;22.90;64.30;;;;;;5036615;28;20408;-59
2023/07/05 07:30:38;;;;;;;4.95;1.52;;;22.90;63.90;;;;;;5032890;28;20045;-60
2023/07/05 07:33:03;;;;;;;2.85;1.50;;;23.00;63.90;;;;;;5030874;28;20044;-60
2023/07/05 07:35:29;;;;;;;2.40;1.15;;;23.00;63.80;;;;;;5030255;28;20042;-60
2023/07/05 07:37:54;;;;;;;2.30;1.42;;;23.00;64.00;;;;;;5033813;28;20017;-59
2023/07/05 07:40:20;;;;;;;5.47;1.70;;;23.10;64.10;;;;;;5038414;28;20085;-59
2023/07/05 07:42:46;;;;;;;2.35;1.58;;;23.30;64.40;;;;;;5036161;28;20029;-59
2023/07/05 07:45:11;;;;;;;4.35;1.92;;;23.40;63.90;;;;;;5037811;28;20041;-61
2023/07/05 07:47:37;;;;;;;2.85;1.63;;;23.60;63.10;;;;;;5038304;28;20028;-60
2023/07/05 07:50:03;;;;;;;6.15;1.58;;;23.80;62.60;;;;;;5032162;28;20030;-59
2023/07/05 07:52:29;;;;;;;2.10;1.52;;;23.90;61.90;;;;;;5032248;28;20025;-59
2023/07/05 07:54:55;;;;;;;3.08;1.30;;;23.90;61.10;;;;;;5032927;28;20124;-59
2023/07/05 07:57:21;;;;;;;4.57;1.50;;;23.90;60.90;;;;;;5028932;28;21468;-60
2023/07/05 07:59:48;;;;;;;2.85;1.50;;;23.90;60.80;;;;;;5028190;28;20017;-59
2023/07/05 08:02:14;;;;;;;3.03;1.60;;;23.90;60.80;;;;;;5012163;28;20030;-59
2023/07/05 08:04:44;;;;;;;3.22;1.60;;;24.00;60.80;;;;;;5042370;28;20077;-58
2023/07/05 08:07:11;;;;;;;4.10;1.85;;;24.00;60.60;;;;;;5043055;28;20040;-59
2023/07/05 08:09:36;;;;;;;3.33;1.80;;;24.20;60.00;;;;;;5044305;28;20021;-59
2023/07/05 08:12:02;;;;;;;5.32;1.70;;;24.30;59.80;;;;;;5038040;28;20081;-59
2023/07/05 08:14:28;;;;;;;3.95;1.83;;;24.50;60.20;;;;;;5041250;28;20037;-59
2023/07/05 08:16:54;;;;;;;3.10;1.58;;;24.60;59.30;;;;;;5040713;28;20034;-60
2023/07/05 08:19:23;;;;;;;2.15;1.50;;;24.70;59.40;;;;;;5038282;28;20491;-59
2023/07/05 08:21:49;;;;;;;1.48;1.25;;;24.90;59.10;;;;;;5039221;28;20036;-61
2023/07/05 08:24:16;;;;;;;2.03;1.63;;;25.00;58.00;;;;;;5031631;28;20035;-59
2023/07/05 08:26:42;;;;;;;2.47;1.50;;;25.20;56.70;;;;;;5035585;28;20065;-60
2023/07/05 08:29:08;;;;;;;3.35;1.33;;;25.20;56.30;;;;;;5034177;28;20057;-60
2023/07/05 08:31:35;;;;;;;2.42;1.55;;;25.10;55.70;;;;;;5039603;28;20075;-60
2023/07/05 08:34:01;;;;;;;3.00;1.75;;;25.00;55.70;;;;;;5030422;28;20542;-58
2023/07/05 08:36:39;;;;;;;5.50;1.52;;;24.90;56.10;;;;;;5008014;28;20037;-58
2023/07/05 08:39:07;;;;;;;2.63;1.17;;;24.60;56.20;;;;;;5009391;28;20030;-59
2023/07/05 08:41:41;;;;;;;3.47;1.20;;;24.30;55.90;;;;;;5021747;28;20235;-58
2023/07/05 08:44:13;;;;;;;2.65;1.00;;;23.90;56.70;;;;;;5034083;28;20029;-60
2023/07/05 08:46:40;;;;;;;3.08;1.30;;;23.60;57.20;;;;;;5037555;28;20025;-58
2023/07/05 08:49:37;;;;;;;5.70;1.30;;;23.20;57.70;;;;;;5036209;28;20536;-59
2023/07/05 08:52:04;;;;;;;4.05;1.30;;;22.80;57.60;;;;;;5035575;28;20033;-59
2023/07/05 08:54:33;;;;;;;2.95;1.40;;;22.50;58.70;;;;;;5037617;28;20042;-58
2023/07/05 08:57:06;;;;;;;3.15;0.95;;;22.30;59.50;;;;;;5042700;28;20040;-59
2023/07/05 08:59:47;;;;;;;2.67;1.02;;;22.00;60.90;;;;;;5035577;28;20036;-58
2023/07/05 09:02:16;;;;;;;3.33;0.90;;;21.80;61.50;;;;;;5039562;28;20056;-59
2023/07/05 09:04:47;;;;;;;5.20;1.30;;;21.70;61.10;;;;;;5038907;28;20025;-59
2023/07/05 09:07:49;;;;;;;2.95;1.20;;;21.60;61.80;;;;;;5038984;28;20029;-59
2023/07/05 09:10:28;;;;;;;1.95;0.82;;;21.40;62.60;;;;;;5032547;28;20026;-60
2023/07/05 09:12:53;;;;;;;2.03;0.90;;;21.30;62.20;;;;;;5037135;28;20017;-58
2023/07/05 09:15:23;;;;;;;1.13;0.80;;;21.20;62.10;;;;;;5037666;28;20040;-60
2023/07/05 09:18:17;;;;;;;2.58;0.80;;;21.00;62.10;;;;;;5040127;28;20033;-62
2023/07/05 09:21:11;;;;;;;0.75;0.75;;;20.80;62.50;;;;;;5039004;28;20049;-58
2023/07/05 09:23:46;;;;;;;1.42;0.77;;;20.60;62.80;;;;;;5038991;28;20026;-59
2023/07/05 09:26:36;;;;;;;0.80;0.80;;;20.50;63.10;;;;;;5028399;28;20066;-60
2023/07/05 09:29:29;;;;;;;3.25;0.80;;;20.40;64.30;;;;;;5031576;28;20045;-59
2023/07/05 09:31:55;;;;;;;1.40;0.90;;;20.20;64.30;;;;;;5021389;28;20144;-58
2023/07/05 09:34:27;;;;;;;1.50;0.80;;;20.20;64.30;;;;;;5034433;28;20021;-58
2023/07/05 09:36:53;;;;;;;0.95;0.73;;;20.10;65.00;;;;;;5044151;28;20025;-59
2023/07/05 09:39:38;;;;;;;1.77;0.88;;;20.20;65.60;;;;;;5038230;28;20473;-58
2023/07/05 09:42:09;;;;;;;0.60;0.60;;;20.20;67.50;;;;;;5037515;28;20043;-59
2023/07/05 09:44:35;;;;;;;0.77;0.77;;;20.40;66.10;;;;;;5031513;28;20032;-59
2023/07/05 09:47:01;;;;;;;1.40;1.00;;;20.40;66.00;;;;;;5038251;28;20055;-58
2023/07/05 09:49:27;;;;;;;2.22;1.10;;;20.60;66.20;;;;;;5039403;28;20075;-59
2023/07/05 09:51:54;;;;;;;1.48;0.90;;;20.70;66.00;;;;;;5035016;28;20029;-59
2023/07/05 09:54:30;;;;;;;1.00;0.90;;;20.90;67.00;;;;;;5036545;28;20076;-58
2023/07/05 09:57:06;;;;;;;3.25;1.02;;;21.20;66.10;;;;;;5032221;28;20041;-58
2023/07/05 09:59:33;;;;;;;1.05;0.95;;;21.40;65.50;;;;;;5032743;28;20068;-59
2023/07/05 10:02:12;;;;;;;1.80;0.95;;;21.60;64.80;;;;;;5027463;28;20025;-58
2023/07/05 10:04:49;;;;;;;1.40;1.10;;;21.80;64.60;;;;;;5036317;28;20026;-58
2023/07/05 10:07:18;;;;;;;2.05;1.00;;;21.90;64.80;;;;;;5035377;28;20053;-59
2023/07/05 10:10:07;;;;;;;1.52;1.10;;;22.00;63.50;;;;;;5030309;28;20025;-59
2023/07/05 10:12:35;;;;;;;4.03;1.13;;;22.20;62.50;;;;;;5031516;28;20063;-59
2023/07/05 10:15:02;;;;;;;1.77;1.00;;;22.20;61.90;;;;;;5037856;28;20033;-59
2023/07/05 10:17:44;;;;;;;1.48;1.10;;;22.30;61.80;;;;;;5038769;28;20101;-59
2023/07/05 10:20:39;;;;;;;2.13;1.08;;;22.30;61.60;;;;;;5036385;28;20033;-58
2023/07/05 10:23:16;;;;;;;2.00;0.90;;;22.40;60.10;;;;;;5016802;28;20038;-58
2023/07/05 10:25:42;;;;;;;1.02;0.85;;;22.40;59.30;;;;;;5028040;28;20049;-59
2023/07/05 10:28:12;;;;;;;1.88;0.90;;;22.40;59.40;;;;;;5033775;28;20040;-61
2023/07/05 10:30:55;;;;;;;2.65;1.08;;;22.40;59.50;;;;;;5032083;28;20025;-60
2023/07/05 10:33:29;;;;;;;2.05;1.10;;;22.40;59.80;;;;;;5035909;28;20021;-59
2023/07/05 10:36:02;;;;;;;1.85;1.00;;;22.40;59.60;;;;;;5037519;28;20037;-60
2023/07/05 10:38:47;;;;;;;2.17;1.10;;;22.50;59.70;;;;;;5033152;28;20030;-58
2023/07/05 10:41:19;;;;;;;1.60;0.90;;;22.60;59.30;;;;;;5034041;28;20032;-60
2023/07/05 10:43:58;;;;;;;2.15;0.90;;;22.70;58.10;;;;;;5029290;28;20459;-59
2023/07/05 10:46:26;;;;;;;1.52;0.80;;;22.70;58.20;;;;;;5035796;28;20044;-59
2023/07/05 10:48:53;;;;;;;2.75;1.15;;;22.70;57.90;;;;;;5032567;28;20026;-59
2023/07/05 10:51:26;;;;;;;1.45;1.00;;;22.80;58.00;;;;;;5032916;28;20024;-59
2023/07/05 10:54:06;;;;;;;1.90;1.13;;;22.80;58.00;;;;;;5035144;28;20104;-59
2023/07/05 10:56:35;;;;;;;1.10;1.00;;;22.90;58.00;;;;;;5034322;28;20529;-60
2023/07/05 10:59:29;;;;;;;2.47;1.23;;;23.00;57.70;;;;;;5035162;28;20117;-60
2023/07/05 11:02:34;;;;;;;2.80;1.20;;;23.20;56.40;;;;;;5035847;28;20045;-60
2023/07/05 11:05:02;;;;;;;1.73;1.20;;;23.40;56.20;;;;;;5034641;28;20587;-58
2023/07/05 11:07:31;;;;;;;3.20;1.33;;;23.60;55.20;;;;;;5031213;28;20030;-59
2023/07/05 11:09:58;;;;;;;1.77;1.40;;;23.70;53.50;;;;;;5034445;28;20084;-59
2023/07/05 11:12:27;;;;;;;3.33;1.73;;;23.80;54.00;;;;;;5039112;28;20025;-60
2023/07/05 11:14:55;;;;;;;2.25;1.38;;;23.80;52.50;;;;;;5031406;28;20021;-61
2023/07/05 11:17:34;;;;;;;1.63;1.40;;;23.90;53.30;;;;;;5035193;28;20042;-60
2023/07/05 11:20:00;;;;;;;2.28;1.40;;;23.90;53.60;;;;;;5037136;28;20044;-61
2023/07/05 11:22:45;;;;;;;2.05;1.60;;;24.10;53.30;;;;;;5032896;28;20058;-59
2023/07/05 11:25:16;;;;;;;1.73;1.25;;;24.20;51.70;;;;;;5028523;28;20046;-60
2023/07/05 11:27:50;;;;;;;1.63;1.50;;;24.30;51.40;;;;;;5030843;28;20049;-60
2023/07/05 11:30:51;;;;;;;1.60;1.50;;;24.30;51.20;;;;;;5036939;28;20025;-61
2023/07/05 11:33:20;;;;;;;1.77;1.45;;;24.50;51.50;;;;;;4948059;29;20070;-60
2023/07/05 11:35:52;;;;;;;2.42;1.48;;;24.60;51.30;;;;;;4946315;28;20039;-60
2023/07/05 11:38:36;;;;;;;1.70;1.30;;;24.70;49.90;;;;;;4950323;29;20031;-60
2023/07/05 11:41:10;;;;;;;1.77;1.38;;;24.70;50.50;;;;;;4853660;28;20548;-61
2023/07/05 11:43:54;;;;;;;1.67;1.55;;;24.80;50.70;;;;;;4955446;29;20061;-60
2023/07/05 11:46:40;;;;;;;1.98;1.50;;;24.90;49.40;;;;;;4957897;29;20055;-61
2023/07/05 11:49:20;;;;;;;5.32;1.17;;;25.00;47.70;;;;;;4955994;29;20036;-60
2023/07/05 11:51:58;;;;;;;1.48;1.38;;;25.10;48.30;;;;;;4958365;29;20139;-59
2023/07/05 11:54:35;;;;;;;1.80;1.58;;;25.10;45.90;;;;;;4951947;29;20050;-59
2023/07/05 11:57:03;;;;;;;1.83;1.65;;;25.10;44.70;;;;;;4957018;29;20054;-60
2023/07/05 11:59:32;;;;;;;2.92;1.60;;;25.20;45.70;;;;;;4956221;29;20031;-59
2023/07/05 12:02:00;;;;;;;2.75;1.58;;;25.20;42.60;;;;;;4952932;29;20043;-59
2023/07/05 12:04:27;;;;;;;1.58;1.35;;;25.30;43.20;;;;;;4949613;28;20066;-60
2023/07/05 12:06:53;;;;;;;1.77;1.30;;;25.30;43.20;;;;;;4985762;28;20033;-59
2023/07/05 12:09:29;;;;;;;2.38;1.55;;;25.30;40.70;;;;;;5037989;28;20025;-58
2023/07/05 12:11:56;;;;;;;1.40;1.30;;;25.40;43.30;;;;;;5034129;28;20121;-59
2023/07/05 12:14:22;;;;;;;2.30;1.67;;;25.50;41.90;;;;;;5040326;28;20021;-59
2023/07/05 12:16:49;;;;;;;1.92;1.60;;;25.60;42.10;;;;;;5033079;28;20035;-59
2023/07/05 12:19:23;;;;;;;4.72;1.67;;;25.60;42.40;;;;;;5034312;28;20025;-59
2023/07/05 12:22:03;;;;;;;1.50;1.40;;;25.70;40.90;;;;;;5042864;28;20022;-61
2023/07/05 12:24:41;;;;;;;1.45;1.35;;;25.70;41.40;;;;;;5033140;28;20060;-60
2023/07/05 12:27:21;;;;;;;2.05;1.88;;;25.70;42.20;;;;;;5033985;28;20045;-60
2023/07/05 12:29:56;;;;;;;2.95;1.42;;;25.80;42.10;;;;;;5037735;28;20428;-59
2023/07/05 12:32:24;;;;;;;2.42;1.48;;;25.90;42.60;;;;;;5037662;28;20033;-59
2023/07/05 12:35:12;;;;;;;1.50;1.35;;;26.10;42.40;;;;;;5037576;28;20032;-58
2023/07/05 12:37:38;;;;;;;1.73;1.40;;;26.20;41.30;;;;;;5035071;28;20253;-60
2023/07/05 12:40:16;;;;;;;2.78;1.58;;;26.30;39.80;;;;;;5039799;28;20208;-61
2023/07/05 12:43:08;;;;;;;1.58;1.48;;;26.30;39.20;;;;;;5037334;28;20033;-61
2023/07/05 12:45:40;;;;;;;2.33;1.60;;;26.40;39.90;;;;;;5024713;28;20033;-60
2023/07/05 12:48:20;;;;;;;4.07;1.90;;;26.40;40.50;;;;;;5034285;28;20025;-59
2023/07/05 12:50:46;;;;;;;2.92;1.88;;;26.50;39.10;;;;;;5034936;28;20025;-60
2023/07/05 12:53:16;;;;;;;1.95;1.75;;;26.50;39.10;;;;;;5038510;28;20076;-61
2023/07/05 12:56:00;;;;;;;1.40;1.30;;;26.50;40.00;;;;;;5037033;28;20038;-61
2023/07/05 12:58:27;;;;;;;1.47;1.27;;;26.60;39.90;;;;;;5032510;28;20045;-60
2023/07/05 13:00:56;;;;;;;1.90;1.40;;;26.70;39.40;;;;;;5020418;28;20756;-60
2023/07/05 13:03:23;;;;;;;2.22;1.67;;;26.80;38.40;;;;;;5039871;28;20022;-60
2023/07/05 13:05:50;;;;;;;2.00;1.60;;;26.80;36.40;;;;;;5040524;28;20028;-60